Gouwestroom — PDGR — position and weather

sailwx.info

Track history (hours):
 
Tides and Currents Weather Stations Pressure Air Temp Water Temp Dewpoint Dewpoint Depression Visibility Wind Speed Wind Dir Waves Ship Positions

Gouwestroom

Last reported at 2016-May-26 14:17 UTC. Time now 2016-May-26 16:35 UTC.
Position N 52°02' E 003°40'.

Length 20 m; draft 2.3 m.

Type: Tug. MMSI: 246166000.

Date/timePositionNaut miles runAvg speedWind from/ knotsBaromVisibWave heightAir tempDewpointWater temp
2016-May-26 14:17N 52°02' E 003°40'5 6.6
2016-May-26 13:31N 52°01' E 003°48'6 6.7
2016-May-26 12:33N 52°00' E 003°58'8 7.4
2016-May-26 11:33N 51°58' E 004°09'7 7.2
2016-May-26 10:33N 51°54' E 004°19'3 3.5
2016-May-26 09:34N 51°54' E 004°25'0 0.2
2016-May-26 08:34N 51°54' E 004°25'0 0.0
2016-May-26 07:33N 51°54' E 004°25'0 0.0
2016-May-26 06:33N 51°54' E 004°25'1 1.1
2016-May-26 05:33N 51°54' E 004°26'6 5.6
2016-May-26 04:25N 51°54' E 004°36'6 7.0
2016-May-26 03:33N 51°49' E 004°44'6 5.6
2016-May-26 02:33N 51°49' E 004°53'0 0.0
2016-May-26 01:33N 51°49' E 004°53'0 0.0
2016-May-26 00:33N 51°49' E 004°53'0 0.0
2016-May-25 23:33N 51°49' E 004°53'0 0.0
2016-May-25 22:33N 51°49' E 004°53'0 0.0
2016-May-25 21:33N 51°49' E 004°53'0 0.0
2016-May-25 20:33N 51°49' E 004°53'0 0.0
2016-May-25 19:33N 51°49' E 004°53'0 0.0
2016-May-25 18:33N 51°49' E 004°53'0 0.0
2016-May-25 17:33N 51°49' E 004°53'0 0.0
2016-May-25 16:33N 51°49' E 004°53'0 0.0
2016-May-25 15:33N 51°49' E 004°53'0 0.0
2016-May-25 14:33N 51°49' E 004°53'0 0.0
2016-May-25 13:33N 51°49' E 004°53'0 0.0
2016-May-25 12:33N 51°49' E 004°53'0 0.0
2016-May-25 11:33N 51°49' E 004°53'0 0.0
2016-May-25 10:33N 51°49' E 004°53'0 0.0
2016-May-25 09:33N 51°49' E 004°53'0 0.0
2016-May-25 08:33N 51°49' E 004°53'0 0.0
2016-May-25 07:33N 51°49' E 004°53'0 0.1
2016-May-25 06:32N 51°49' E 004°53'0 0.0
2016-May-25 05:33N 51°49' E 004°53'0 0.0
2016-May-25 04:33N 51°49' E 004°53'0 0.0
2016-May-25 03:33N 51°49' E 004°53'0 0.0
2016-May-25 02:33N 51°49' E 004°53'0 0.0
2016-May-25 01:33N 51°49' E 004°53'0 0.0
2016-May-25 00:33N 51°49' E 004°53'0 0.0
2016-May-24 23:33N 51°49' E 004°53'0 0.0
2016-May-24 22:33N 51°49' E 004°53'0 0.0
2016-May-24 21:33N 51°49' E 004°53'0 0.0
2016-May-24 20:33N 51°49' E 004°53'0 0.0
2016-May-24 19:33N 51°49' E 004°53'0 0.0
2016-May-24 18:33N 51°49' E 004°53'0 0.0
2016-May-24 17:33N 51°49' E 004°53'0 0.0
2016-May-24 16:33N 51°49' E 004°53'0 0.0
2016-May-24 15:33N 51°49' E 004°53'0 0.0
2016-May-24 14:33N 51°49' E 004°53'0 0.0
2016-May-24 13:33N 51°49' E 004°53'0 0.0
2016-May-24 12:33N 51°49' E 004°53'0 0.0
2016-May-24 11:34N 51°49' E 004°53'0 0.0
2016-May-24 10:33N 51°49' E 004°53'0 0.0
2016-May-24 09:33N 51°49' E 004°53'0 0.0
2016-May-24 08:33N 51°49' E 004°53'0 0.0
2016-May-24 07:33N 51°49' E 004°53'0 0.0
2016-May-24 06:33N 51°49' E 004°53'0 0.0
2016-May-24 05:33N 51°49' E 004°53'0 0.0
2016-May-24 04:33N 51°49' E 004°53'0 0.0
2016-May-24 03:33N 51°49' E 004°53'0 0.0
2016-May-24 02:33N 51°49' E 004°53'0 0.0
2016-May-24 01:33N 51°49' E 004°53'0 0.0
2016-May-24 00:33N 51°49' E 004°53'0 0.0
2016-May-23 23:33N 51°49' E 004°53'0 0.0
2016-May-23 22:33N 51°49' E 004°53'0 0.0
2016-May-23 21:33N 51°49' E 004°53'0 0.0
2016-May-23 20:33N 51°49' E 004°53'0 0.0
2016-May-23 19:33N 51°49' E 004°53'0 0.0
2016-May-23 18:33N 51°49' E 004°53'0 0.0
2016-May-23 17:33N 51°49' E 004°53'0 0.0
2016-May-23 16:33N 51°49' E 004°53'0 0.0
2016-May-23 15:33N 51°49' E 004°53'0 0.0
2016-May-23 14:33N 51°49' E 004°53'0 0.0
2016-May-23 13:33N 51°49' E 004°53'0 0.0
2016-May-23 12:33N 51°49' E 004°53'0 0.0
2016-May-23 11:33N 51°49' E 004°53'0 0.0
2016-May-23 10:33N 51°49' E 004°53'0 0.0
2016-May-23 09:34N 51°49' E 004°53'0 0.0
2016-May-23 08:33N 51°49' E 004°53'  
Track history (hours):
 
Tides and Currents Weather Stations Pressure Air Temp Water Temp Dewpoint Dewpoint Depression Visibility Wind Speed Wind Dir Waves Ship Positions

Gouwestroom

Last reported at 2016-May-26 14:17 UTC. Time now 2016-May-26 16:35 UTC.
Position N 52°02' E 003°40'.

Length 20 m; draft 2.3 m.

Type: Tug. MMSI: 246166000.

Date/timePositionNaut miles runAvg speedWind from/ knotsBaromVisibWave heightAir tempDewpointWater temp
2016-May-26 14:17N 52°02' E 003°40'5 6.6
2016-May-26 13:31N 52°01' E 003°48'6 6.7
2016-May-26 12:33N 52°00' E 003°58'8 7.4
2016-May-26 11:33N 51°58' E 004°09'7 7.2
2016-May-26 10:33N 51°54' E 004°19'3 3.5
2016-May-26 09:34N 51°54' E 004°25'0 0.2
2016-May-26 08:34N 51°54' E 004°25'0 0.0
2016-May-26 07:33N 51°54' E 004°25'0 0.0
2016-May-26 06:33N 51°54' E 004°25'1 1.1
2016-May-26 05:33N 51°54' E 004°26'6 5.6
2016-May-26 04:25N 51°54' E 004°36'6 7.0
2016-May-26 03:33N 51°49' E 004°44'6 5.6
2016-May-26 02:33N 51°49' E 004°53'0 0.0
2016-May-26 01:33N 51°49' E 004°53'0 0.0
2016-May-26 00:33N 51°49' E 004°53'0 0.0
2016-May-25 23:33N 51°49' E 004°53'0 0.0
2016-May-25 22:33N 51°49' E 004°53'0 0.0
2016-May-25 21:33N 51°49' E 004°53'0 0.0
2016-May-25 20:33N 51°49' E 004°53'0 0.0
2016-May-25 19:33N 51°49' E 004°53'0 0.0
2016-May-25 18:33N 51°49' E 004°53'0 0.0
2016-May-25 17:33N 51°49' E 004°53'0 0.0
2016-May-25 16:33N 51°49' E 004°53'0 0.0
2016-May-25 15:33N 51°49' E 004°53'0 0.0
2016-May-25 14:33N 51°49' E 004°53'0 0.0
2016-May-25 13:33N 51°49' E 004°53'0 0.0
2016-May-25 12:33N 51°49' E 004°53'0 0.0
2016-May-25 11:33N 51°49' E 004°53'0 0.0
2016-May-25 10:33N 51°49' E 004°53'0 0.0
2016-May-25 09:33N 51°49' E 004°53'0 0.0
2016-May-25 08:33N 51°49' E 004°53'0 0.0
2016-May-25 07:33N 51°49' E 004°53'0 0.1
2016-May-25 06:32N 51°49' E 004°53'0 0.0
2016-May-25 05:33N 51°49' E 004°53'0 0.0
2016-May-25 04:33N 51°49' E 004°53'0 0.0
2016-May-25 03:33N 51°49' E 004°53'0 0.0
2016-May-25 02:33N 51°49' E 004°53'0 0.0
2016-May-25 01:33N 51°49' E 004°53'0 0.0
2016-May-25 00:33N 51°49' E 004°53'0 0.0
2016-May-24 23:33N 51°49' E 004°53'0 0.0
2016-May-24 22:33N 51°49' E 004°53'0 0.0
2016-May-24 21:33N 51°49' E 004°53'0 0.0
2016-May-24 20:33N 51°49' E 004°53'0 0.0
2016-May-24 19:33N 51°49' E 004°53'0 0.0
2016-May-24 18:33N 51°49' E 004°53'0 0.0
2016-May-24 17:33N 51°49' E 004°53'0 0.0
2016-May-24 16:33N 51°49' E 004°53'0 0.0
2016-May-24 15:33N 51°49' E 004°53'0 0.0
2016-May-24 14:33N 51°49' E 004°53'0 0.0
2016-May-24 13:33N 51°49' E 004°53'0 0.0
2016-May-24 12:33N 51°49' E 004°53'0 0.0
2016-May-24 11:34N 51°49' E 004°53'0 0.0
2016-May-24 10:33N 51°49' E 004°53'0 0.0
2016-May-24 09:33N 51°49' E 004°53'0 0.0
2016-May-24 08:33N 51°49' E 004°53'0 0.0
2016-May-24 07:33N 51°49' E 004°53'0 0.0
2016-May-24 06:33N 51°49' E 004°53'0 0.0
2016-May-24 05:33N 51°49' E 004°53'0 0.0
2016-May-24 04:33N 51°49' E 004°53'0 0.0
2016-May-24 03:33N 51°49' E 004°53'0 0.0
2016-May-24 02:33N 51°49' E 004°53'0 0.0
2016-May-24 01:33N 51°49' E 004°53'0 0.0
2016-May-24 00:33N 51°49' E 004°53'0 0.0
2016-May-23 23:33N 51°49' E 004°53'0 0.0
2016-May-23 22:33N 51°49' E 004°53'0 0.0
2016-May-23 21:33N 51°49' E 004°53'0 0.0
2016-May-23 20:33N 51°49' E 004°53'0 0.0
2016-May-23 19:33N 51°49' E 004°53'0 0.0
2016-May-23 18:33N 51°49' E 004°53'0 0.0
2016-May-23 17:33N 51°49' E 004°53'0 0.0
2016-May-23 16:33N 51°49' E 004°53'0 0.0
2016-May-23 15:33N 51°49' E 004°53'0 0.0
2016-May-23 14:33N 51°49' E 004°53'0 0.0
2016-May-23 13:33N 51°49' E 004°53'0 0.0
2016-May-23 12:33N 51°49' E 004°53'0 0.0
2016-May-23 11:33N 51°49' E 004°53'0 0.0
2016-May-23 10:33N 51°49' E 004°53'0 0.0
2016-May-23 09:34N 51°49' E 004°53'0 0.0
2016-May-23 08:33N 51°49' E 004°53'  

Dump ship's entire track history